Time;durP1;ratioP1;P1;durP2;ratioP2;P2;SDS_P1;SDS_P2;PMS_P1;PMS_P2;Temp;Humidity;BMP_temperature;BMP_pressure;BME280_temperature;BME280_humidity;BME280_pressure;Samples;Min_cycle;Max_cycle;Signal;HPM_P1;HPM_P2
2021/10/08 03:00:37;;;;;;;479.97;83.50;;;8.50;99.90;;;;;;6157845;23;20479;-75
2021/10/08 03:03:06;;;;;;;239.00;52.30;;;8.50;99.90;;;;;;6155902;23;20911;-75
2021/10/08 03:05:36;;;;;;;250.97;49.83;;;8.50;99.90;;;;;;6156188;23;20755;-75
2021/10/08 03:08:06;;;;;;;262.27;57.77;;;8.40;99.90;;;;;;6164552;23;20817;-75
2021/10/08 03:10:34;;;;;;;253.00;53.30;;;8.40;99.90;;;;;;6185961;23;20498;-75
2021/10/08 03:13:03;;;;;;;351.90;60.90;;;8.40;99.90;;;;;;6186076;23;20412;-75
2021/10/08 03:15:33;;;;;;;308.30;59.43;;;8.40;99.90;;;;;;6186428;23;20796;-75
2021/10/08 03:18:03;;;;;;;249.53;55.37;;;8.40;99.90;;;;;;6186280;23;20457;-75
2021/10/08 03:20:32;;;;;;;16.75;15.05;;;8.40;99.90;;;;;;6184107;23;20461;-75
2021/10/08 03:23:01;;;;;;;237.40;62.77;;;8.50;99.90;;;;;;6197167;23;20164;-75
2021/10/08 03:25:29;;;;;;;304.67;66.43;;;8.50;99.90;;;;;;6185775;23;20419;-75
2021/10/08 03:27:58;;;;;;;226.97;54.13;;;8.40;99.90;;;;;;6185522;23;20489;-75
2021/10/08 03:30:29;;;;;;;201.17;50.17;;;8.40;99.90;;;;;;6185646;23;20422;-75
2021/10/08 03:32:57;;;;;;;223.83;56.43;;;8.30;99.90;;;;;;6185440;23;20415;-75
2021/10/08 03:35:28;;;;;;;228.73;53.17;;;8.30;99.90;;;;;;6185503;23;20424;-75
2021/10/08 03:38:02;;;;;;;285.90;61.73;;;8.30;99.90;;;;;;6185326;23;20494;-75
2021/10/08 03:40:32;;;;;;;451.67;82.50;;;8.30;99.90;;;;;;6185240;23;20426;-75
2021/10/08 03:43:01;;;;;;;262.73;61.93;;;8.30;99.90;;;;;;6185403;23;20462;-75
2021/10/08 03:45:42;;;;;;;747.23;130.33;;;8.20;99.90;;;;;;6185273;23;20503;-75
2021/10/08 03:48:21;;;;;;;634.03;93.90;;;8.20;99.90;;;;;;6185242;23;20526;-75
2021/10/08 03:50:51;;;;;;;724.80;134.27;;;8.20;99.90;;;;;;6186303;23;20774;-75
2021/10/08 03:53:19;;;;;;;198.23;51.73;;;8.20;99.90;;;;;;6185237;23;20423;-75
2021/10/08 03:55:47;;;;;;;156.97;46.47;;;8.10;99.90;;;;;;6187016;23;20431;-74
2021/10/08 03:58:16;;;;;;;196.00;54.47;;;8.10;99.90;;;;;;6196489;23;20439;-74
2021/10/08 04:00:45;;;;;;;276.17;62.90;;;8.10;99.90;;;;;;6184905;23;20850;-75
2021/10/08 04:03:15;;;;;;;331.03;60.23;;;8.10;99.90;;;;;;6185435;23;20447;-75
2021/10/08 04:05:45;;;;;;;258.17;54.80;;;8.10;99.90;;;;;;6186202;23;20416;-75
2021/10/08 04:08:16;;;;;;;470.70;117.80;;;8.10;99.90;;;;;;6196977;23;20510;-75
2021/10/08 04:10:51;;;;;;;777.83;111.80;;;8.10;99.90;;;;;;6184868;23;20415;-75
2021/10/08 04:13:19;;;;;;;204.23;46.23;;;8.00;99.90;;;;;;6184961;23;20498;-75
2021/10/08 04:15:47;;;;;;;18.60;16.90;;;8.00;99.90;;;;;;6184353;23;20754;-75
2021/10/08 04:18:15;;;;;;;296.77;67.50;;;8.00;99.90;;;;;;6184812;23;20542;-75
2021/10/08 04:20:44;;;;;;;165.57;45.65;;;8.10;99.90;;;;;;6184624;23;20409;-75
2021/10/08 04:23:14;;;;;;;159.20;48.37;;;8.00;99.90;;;;;;6185149;23;20679;-75
2021/10/08 04:25:46;;;;;;;237.70;46.57;;;8.00;99.90;;;;;;6184830;23;20454;-75
2021/10/08 04:28:14;;;;;;;251.50;61.07;;;8.00;99.90;;;;;;6185043;23;20518;-75
2021/10/08 04:30:42;;;;;;;188.80;47.80;;;8.00;99.90;;;;;;6185058;23;20411;-75
2021/10/08 04:33:15;;;;;;;237.40;54.23;;;7.90;99.90;;;;;;6184957;23;20411;-75
2021/10/08 04:35:47;;;;;;;745.13;112.43;;;7.90;99.90;;;;;;6185531;23;20419;-75
2021/10/08 04:38:16;;;;;;;472.87;90.33;;;7.90;99.90;;;;;;6185008;23;20454;-76
2021/10/08 04:40:47;;;;;;;184.63;45.40;;;7.90;99.90;;;;;;6185961;23;20427;-75
2021/10/08 04:43:16;;;;;;;365.23;65.73;;;7.90;99.90;;;;;;6184943;23;20423;-75
2021/10/08 04:45:45;;;;;;;634.40;98.97;;;7.80;99.90;;;;;;6185036;23;20415;-75
2021/10/08 04:48:13;;;;;;;950.30;148.90;;;7.80;99.90;;;;;;6184400;23;20427;-75
2021/10/08 04:50:42;;;;;;;319.97;61.53;;;7.80;99.90;;;;;;6184729;23;20414;-75
2021/10/08 04:53:19;;;;;;;298.70;56.73;;;7.80;99.90;;;;;;6184600;23;20758;-75
2021/10/08 04:55:50;;;;;;;265.53;55.93;;;7.80;99.90;;;;;;6184634;23;20723;-75
2021/10/08 04:58:19;;;;;;;1193.27;286.87;;;7.80;99.90;;;;;;6185374;23;20459;-75
2021/10/08 05:00:49;;;;;;;275.23;59.90;;;7.80;99.90;;;;;;6185237;23;20499;-75
2021/10/08 05:03:20;;;;;;;290.40;54.20;;;7.80;99.90;;;;;;6184694;23;20423;-75
2021/10/08 05:05:52;;;;;;;761.70;198.20;;;7.70;99.90;;;;;;6184826;23;20458;-75
2021/10/08 05:08:29;;;;;;;762.13;115.30;;;7.70;99.90;;;;;;6185374;23;20431;-75
2021/10/08 05:11:04;;;;;;;391.97;73.77;;;7.70;99.90;;;;;;6184725;23;20415;-74
2021/10/08 05:13:34;;;;;;;624.03;111.70;;;7.70;99.90;;;;;;6184220;23;20933;-75
2021/10/08 05:16:04;;;;;;;341.80;76.50;;;7.70;99.90;;;;;;6184266;23;20801;-75
2021/10/08 05:18:32;;;;;;;706.40;113.93;;;7.70;99.90;;;;;;6184233;23;20941;-75
2021/10/08 05:21:01;;;;;;;317.50;57.10;;;7.60;99.90;;;;;;6184448;23;20411;-75
2021/10/08 05:23:29;;;;;;;1096.73;296.53;;;7.60;99.90;;;;;;6184751;23;20416;-75
2021/10/08 05:25:57;;;;;;;574.83;98.20;;;7.60;99.90;;;;;;6184398;23;20455;-75
2021/10/08 05:28:28;;;;;;;428.03;83.47;;;7.60;99.90;;;;;;6184407;23;20489;-75
2021/10/08 05:30:59;;;;;;;468.53;100.53;;;7.60;99.90;;;;;;6184495;23;20439;-75
2021/10/08 05:33:28;;;;;;;1136.13;175.50;;;7.60;99.90;;;;;;6184349;23;20462;-75
2021/10/08 05:35:57;;;;;;;1089.73;169.00;;;7.50;99.90;;;;;;6184475;23;20415;-75
2021/10/08 05:38:25;;;;;;;663.40;117.50;;;7.50;99.90;;;;;;6184606;23;20446;-75
2021/10/08 05:40:54;;;;;;;289.93;56.07;;;7.50;99.90;;;;;;6184522;23;20418;-75
2021/10/08 05:43:24;;;;;;;1368.57;190.10;;;7.50;99.90;;;;;;6184579;23;20411;-75
2021/10/08 05:46:00;;;;;;;502.20;94.33;;;7.50;99.90;;;;;;6184400;23;20402;-75
2021/10/08 05:48:31;;;;;;;1224.70;180.87;;;7.50;99.90;;;;;;6183912;23;20494;-75
2021/10/08 05:50:59;;;;;;;1077.67;176.93;;;7.50;99.90;;;;;;6184318;23;20411;-75
2021/10/08 05:53:27;;;;;;;276.03;52.67;;;7.50;99.90;;;;;;6184315;23;20454;-75
2021/10/08 05:55:56;;;;;;;725.47;117.67;;;7.50;99.90;;;;;;6184171;23;20454;-75
2021/10/08 05:58:24;;;;;;;1033.23;170.03;;;7.40;99.90;;;;;;6184074;23;20922;-76
2021/10/08 06:00:52;;;;;;;915.77;144.03;;;7.40;99.90;;;;;;6184223;23;20438;-74
2021/10/08 06:03:22;;;;;;;1061.93;188.37;;;7.40;99.90;;;;;;6184363;23;20490;-75
2021/10/08 06:05:50;;;;;;;768.33;115.27;;;7.40;99.90;;;;;;6184450;23;20798;-76
2021/10/08 06:08:18;;;;;;;422.03;73.67;;;7.40;99.90;;;;;;6184190;23;20522;-76
2021/10/08 06:10:50;;;;;;;232.33;57.43;;;7.40;99.90;;;;;;6184468;23;20407;-75
2021/10/08 06:13:20;;;;;;;1052.63;187.87;;;7.40;99.90;;;;;;6184722;23;20416;-74
2021/10/08 06:15:49;;;;;;;19.20;17.40;;;7.40;99.90;;;;;;6183325;23;20485;-75
2021/10/08 06:18:18;;;;;;;257.87;58.60;;;7.50;99.90;;;;;;6184249;23;20227;-74
2021/10/08 06:20:49;;;;;;;18.23;16.53;;;7.50;99.90;;;;;;6183630;23;20419;-75
2021/10/08 06:23:19;;;;;;;306.73;58.73;;;7.60;99.90;;;;;;6184518;23;20411;-75
2021/10/08 06:25:48;;;;;;;253.20;49.50;;;7.60;99.90;;;;;;6187070;23;20415;-75
2021/10/08 06:28:22;;;;;;;260.83;49.47;;;7.60;99.90;;;;;;6186903;23;20828;-75
2021/10/08 06:30:51;;;;;;;315.77;57.90;;;7.50;99.90;;;;;;6186482;23;20447;-75
2021/10/08 06:33:20;;;;;;;238.80;52.53;;;7.50;99.90;;;;;;6186837;23;20495;-75
2021/10/08 06:35:51;;;;;;;367.70;66.80;;;7.50;99.90;;;;;;6186720;23;20794;-75
2021/10/08 06:38:21;;;;;;;732.57;145.00;;;7.50;99.90;;;;;;6186166;23;20489;-75
2021/10/08 06:40:52;;;;;;;195.43;39.37;;;7.50;99.90;;;;;;6187229;23;20450;-75
2021/10/08 06:43:20;;;;;;;188.20;35.10;;;7.60;99.90;;;;;;6187875;23;20446;-75
2021/10/08 06:45:58;;;;;;;298.03;66.40;;;7.60;99.90;;;;;;6186731;23;20411;-75
2021/10/08 06:48:28;;;;;;;242.53;46.43;;;7.60;99.90;;;;;;6186920;23;20439;-75
2021/10/08 06:50:58;;;;;;;212.20;53.27;;;7.70;99.90;;;;;;6186525;23;20424;-75
2021/10/08 06:53:27;;;;;;;184.73;55.27;;;7.70;99.90;;;;;;6186315;23;20419;-75
2021/10/08 06:55:55;;;;;;;214.80;47.43;;;7.80;99.90;;;;;;6186822;23;20486;-75
2021/10/08 06:58:42;;;;;;;174.67;30.53;;;7.80;99.90;;;;;;6188014;23;20433;-75
2021/10/08 07:01:11;;;;;;;175.57;38.97;;;7.80;99.90;;;;;;6186774;23;20427;-75
2021/10/08 07:03:40;;;;;;;158.93;45.07;;;7.90;99.90;;;;;;6186118;23;20453;-75
2021/10/08 07:06:11;;;;;;;156.20;39.03;;;7.80;99.90;;;;;;6185751;23;20427;-75
2021/10/08 07:08:40;;;;;;;246.30;44.23;;;7.90;99.90;;;;;;6186856;23;20883;-75
2021/10/08 07:11:10;;;;;;;277.53;51.90;;;7.90;99.90;;;;;;6185877;23;20446;-76
2021/10/08 07:13:39;;;;;;;126.47;38.53;;;8.00;99.90;;;;;;6186100;23;20451;-76
2021/10/08 07:16:08;;;;;;;120.45;32.35;;;8.10;99.90;;;;;;6185847;23;20451;-75
2021/10/08 07:18:45;;;;;;;173.37;44.67;;;8.10;99.90;;;;;;6185736;23;20654;-75
2021/10/08 07:21:14;;;;;;;147.57;32.67;;;8.10;99.90;;;;;;6186172;23;20442;-76
2021/10/08 07:23:45;;;;;;;17.05;15.55;;;8.20;99.90;;;;;;6184489;23;20415;-75
2021/10/08 07:26:14;;;;;;;312.53;66.93;;;8.30;99.90;;;;;;6186224;23;20163;-75
2021/10/08 07:28:42;;;;;;;227.30;43.47;;;8.40;99.90;;;;;;6185948;23;20441;-76
2021/10/08 07:31:11;;;;;;;180.23;41.97;;;8.40;99.90;;;;;;6186010;23;20419;-76
2021/10/08 07:33:42;;;;;;;144.70;34.40;;;8.40;99.90;;;;;;6185710;23;20424;-75
2021/10/08 07:36:10;;;;;;;175.33;41.53;;;8.50;99.90;;;;;;6185746;23;20412;-75
2021/10/08 07:38:41;;;;;;;173.60;45.03;;;8.50;99.90;;;;;;6186156;23;20440;-75
2021/10/08 07:41:10;;;;;;;142.13;36.60;;;8.60;99.90;;;;;;6197666;23;20428;-75
2021/10/08 07:43:40;;;;;;;184.47;48.40;;;8.60;99.90;;;;;;6185693;23;20473;-75
2021/10/08 07:46:09;;;;;;;146.93;40.07;;;8.70;99.90;;;;;;6188758;23;20404;-75
2021/10/08 07:48:38;;;;;;;107.70;35.23;;;8.70;99.90;;;;;;6186125;23;20993;-76
2021/10/08 07:51:07;;;;;;;202.90;50.00;;;8.80;99.90;;;;;;6185507;23;20412;-76
2021/10/08 07:53:36;;;;;;;234.83;48.60;;;8.90;99.90;;;;;;6197080;23;20793;-75
2021/10/08 07:56:06;;;;;;;194.43;40.87;;;9.00;99.90;;;;;;6185758;23;20754;-75
2021/10/08 07:58:34;;;;;;;209.37;44.27;;;9.10;99.90;;;;;;6187193;23;20443;-75
2021/10/08 08:01:04;;;;;;;240.63;53.70;;;9.30;99.90;;;;;;6185304;23;20518;-75
2021/10/08 08:03:32;;;;;;;286.27;52.90;;;9.40;99.90;;;;;;6185339;23;20419;-75
2021/10/08 08:06:00;;;;;;;266.53;51.03;;;9.50;99.90;;;;;;6196723;23;20404;-75
2021/10/08 08:08:29;;;;;;;205.73;59.43;;;9.60;99.90;;;;;;6185446;23;20447;-76
2021/10/08 08:10:57;;;;;;;188.43;56.27;;;9.80;99.90;;;;;;6185508;23;20472;-76
2021/10/08 08:13:27;;;;;;;327.50;70.13;;;9.90;99.90;;;;;;6185669;23;20419;-75
2021/10/08 08:15:55;;;;;;;279.27;61.23;;;10.00;99.90;;;;;;6197171;23;20426;-74
2021/10/08 08:18:23;;;;;;;126.82;38.00;;;10.20;99.90;;;;;;6196194;23;20734;-75
2021/10/08 08:20:51;;;;;;;335.13;102.53;;;10.40;99.90;;;;;;6196729;23;20184;-75
2021/10/08 08:23:20;;;;;;;216.10;80.78;;;10.50;99.90;;;;;;6186658;23;20730;-75
2021/10/08 08:25:49;;;;;;;270.53;94.83;;;10.60;99.90;;;;;;6185090;23;20206;-75
2021/10/08 08:28:17;;;;;;;507.60;127.57;;;10.70;99.90;;;;;;6186770;23;20515;-75
2021/10/08 08:30:47;;;;;;;351.23;82.70;;;10.90;99.90;;;;;;6184761;23;20419;-75
2021/10/08 08:33:15;;;;;;;364.83;113.27;;;11.00;99.90;;;;;;6196882;23;20449;-75
2021/10/08 08:35:43;;;;;;;406.03;133.47;;;11.10;99.90;;;;;;6184910;23;20821;-75
2021/10/08 08:38:12;;;;;;;518.17;177.80;;;11.20;99.90;;;;;;6184742;23;20463;-75
2021/10/08 08:40:40;;;;;;;498.60;148.70;;;11.30;99.90;;;;;;6196641;23;20427;-75
2021/10/08 08:43:08;;;;;;;440.63;166.70;;;11.40;99.90;;;;;;6196367;23;20424;-76
2021/10/08 08:45:36;;;;;;;320.30;162.40;;;11.50;99.90;;;;;;6184880;23;20420;-75
2021/10/08 08:48:08;;;;;;;282.57;152.70;;;11.60;99.90;;;;;;6184489;23;20479;-75
2021/10/08 08:50:38;;;;;;;747.97;289.67;;;11.70;99.90;;;;;;6184551;23;20403;-75
2021/10/08 08:53:07;;;;;;;689.63;310.13;;;11.80;99.90;;;;;;6184724;23;20458;-75
2021/10/08 08:55:36;;;;;;;793.77;322.73;;;11.90;99.90;;;;;;6196651;23;20435;-75
2021/10/08 08:58:04;;;;;;;880.20;376.83;;;12.00;99.90;;;;;;6184547;23;20470;-75
2021/10/08 09:00:33;;;;;;;1638.60;640.40;;;12.00;99.90;;;;;;6184547;23;20458;-75
2021/10/08 09:03:03;;;;;;;1692.60;645.80;;;12.10;99.90;;;;;;6184582;23;20407;-75
2021/10/08 09:05:35;;;;;;;1919.77;685.83;;;12.20;99.90;;;;;;6184764;23;20495;-75
2021/10/08 09:08:06;;;;;;;1789.47;651.73;;;12.30;99.90;;;;;;6196348;23;20451;-75
2021/10/08 09:10:36;;;;;;;1869.50;708.03;;;12.30;99.90;;;;;;6184835;23;20422;-75
2021/10/08 09:13:05;;;;;;;1999.90;786.50;;;12.40;99.90;;;;;;6186651;23;20840;-76
2021/10/08 09:15:46;;;;;;;207.88;147.43;;;12.50;99.90;;;;;;6195825;23;20862;-75
2021/10/08 09:18:16;;;;;;;1999.90;954.93;;;12.60;99.90;;;;;;6184344;23;20230;-75
2021/10/08 09:21:18;;;;;;;1999.90;942.73;;;12.60;99.90;;;;;;6184317;23;20450;-76
2021/10/08 09:23:50;;;;;;;1999.90;999.90;;;12.70;99.90;;;;;;6196062;23;20781;-76
2021/10/08 09:26:23;;;;;;;1999.90;968.00;;;12.80;99.90;;;;;;6184403;23;20506;-75
2021/10/08 09:28:56;;;;;;;1999.90;999.90;;;12.80;99.90;;;;;;6184261;23;20538;-76
2021/10/08 09:31:29;;;;;;;1999.90;980.20;;;12.90;99.90;;;;;;6184325;23;21000;-76
2021/10/08 09:34:14;;;;;;;1999.90;999.90;;;13.00;99.90;;;;;;6184456;23;20416;-75
2021/10/08 09:36:47;;;;;;;1999.90;999.90;;;13.00;99.90;;;;;;6181322;23;20422;-75
2021/10/08 09:39:19;;;;;;;1999.90;999.90;;;13.10;99.90;;;;;;6184230;23;20521;-75
2021/10/08 09:41:55;;;;;;;1999.90;999.90;;;13.20;99.90;;;;;;6184123;23;20775;-75
2021/10/08 09:44:24;;;;;;;1999.90;999.90;;;13.20;99.90;;;;;;6196433;23;20407;-76
2021/10/08 09:46:52;;;;;;;1999.90;999.90;;;13.30;99.90;;;;;;6184184;23;20899;-75
2021/10/08 09:49:21;;;;;;;1999.90;999.90;;;13.40;99.90;;;;;;6195996;23;20510;-75
2021/10/08 09:51:50;;;;;;;1999.90;963.90;;;13.40;99.90;;;;;;6184279;23;20447;-75
2021/10/08 09:54:19;;;;;;;1999.90;719.87;;;13.50;99.90;;;;;;6184344;23;20427;-75
2021/10/08 09:56:59;;;;;;;1999.90;641.73;;;13.60;99.90;;;;;;6184408;23;20419;-76
2021/10/08 09:59:39;;;;;;;1999.90;949.67;;;13.60;99.90;;;;;;6195667;23;20898;-75
2021/10/08 10:02:07;;;;;;;1999.90;536.80;;;13.70;99.90;;;;;;6195771;23;20521;-75
2021/10/08 10:04:49;;;;;;;1999.90;642.63;;;13.80;99.90;;;;;;6184237;23;20442;-76
2021/10/08 10:07:19;;;;;;;1999.90;523.73;;;13.90;99.90;;;;;;6195920;23;20380;-76
2021/10/08 10:09:49;;;;;;;34.75;31.75;;;13.90;99.90;;;;;;6194323;23;20722;-76
2021/10/08 10:12:35;;;;;;;1999.90;999.90;;;14.00;99.90;;;;;;6196318;23;20157;-75
2021/10/08 10:15:03;;;;;;;49.60;40.83;;;14.10;99.90;;;;;;6183198;23;20415;-75
2021/10/08 10:17:34;;;;;;;1999.90;999.90;;;14.20;99.90;;;;;;6195945;23;20168;-75
2021/10/08 10:20:03;;;;;;;1999.90;570.70;;;14.30;99.90;;;;;;6195885;23;20422;-76
2021/10/08 10:22:34;;;;;;;1820.47;458.97;;;14.30;99.90;;;;;;6196301;23;20431;-76
2021/10/08 10:25:05;;;;;;;1984.87;778.43;;;14.40;99.90;;;;;;6195831;23;20422;-76
2021/10/08 10:27:34;;;;;;;1999.90;999.90;;;14.50;99.90;;;;;;6184089;23;20412;-75
2021/10/08 10:30:05;;;;;;;1648.30;709.33;;;14.50;99.90;;;;;;6184130;23;20722;-76
2021/10/08 10:32:33;;;;;;;1876.63;744.47;;;14.50;99.90;;;;;;6195718;23;20408;-76
2021/10/08 10:35:04;;;;;;;1999.90;999.90;;;14.60;99.90;;;;;;6184079;23;20385;-76
2021/10/08 10:37:41;;;;;;;1999.90;999.90;;;14.60;99.90;;;;;;6195554;23;20406;-76
2021/10/08 10:40:18;;;;;;;1999.90;999.90;;;14.70;99.90;;;;;;6195898;23;20430;-75
2021/10/08 10:42:47;;;;;;;1999.90;999.90;;;14.70;99.90;;;;;;6195914;23;20385;-75
2021/10/08 10:45:21;;;;;;;1999.90;999.90;;;14.80;99.90;;;;;;6183991;23;20490;-76
2021/10/08 10:48:16;;;;;;;1631.00;696.97;;;14.90;99.90;;;;;;6184047;23;20525;-75
2021/10/08 10:51:12;;;;;;;1531.73;691.33;;;14.90;99.90;;;;;;6184709;23;20374;-76
2021/10/08 10:53:50;;;;;;;1999.90;999.90;;;15.00;99.90;;;;;;6183909;23;20524;-76
2021/10/08 10:56:43;;;;;;;1999.90;999.90;;;15.10;99.90;;;;;;6195848;23;20943;-76
2021/10/08 10:59:28;;;;;;;1999.90;974.00;;;15.10;99.90;;;;;;6182405;23;20489;-76
2021/10/08 11:02:23;;;;;;;1289.40;413.77;;;15.20;99.90;;;;;;6183792;23;20854;-75
2021/10/08 11:05:08;;;;;;;1999.90;999.90;;;15.30;99.90;;;;;;6183076;23;20398;-76
2021/10/08 11:07:36;;;;;;;1680.43;701.23;;;15.40;99.90;;;;;;6183864;23;20168;-75
2021/10/08 11:10:20;;;;;;;1999.90;999.90;;;15.50;99.90;;;;;;6184196;23;20422;-76
2021/10/08 11:12:50;;;;;;;1999.90;999.90;;;15.50;99.90;;;;;;6184818;23;20424;-75
2021/10/08 11:15:34;;;;;;;1999.90;999.90;;;15.60;99.90;;;;;;6185680;23;20805;-75
2021/10/08 11:18:03;;;;;;;1999.90;999.90;;;15.60;99.90;;;;;;6197250;23;20386;-75
2021/10/08 11:20:47;;;;;;;1999.90;999.90;;;15.60;99.90;;;;;;6185693;23;20379;-76
2021/10/08 11:23:24;;;;;;;1999.90;999.90;;;15.70;99.90;;;;;;6185683;23;20486;-76
2021/10/08 11:25:54;;;;;;;1999.90;999.90;;;15.70;99.90;;;;;;6186231;23;20822;-76
2021/10/08 11:28:30;;;;;;;1999.90;999.90;;;15.70;99.90;;;;;;6196976;23;20502;-76
2021/10/08 11:30:58;;;;;;;1999.90;999.90;;;15.80;99.90;;;;;;6185560;23;20415;-76
2021/10/08 11:33:42;;;;;;;1999.90;999.90;;;15.90;99.90;;;;;;6185424;23;20386;-76
2021/10/08 11:36:28;;;;;;;1999.90;449.27;;;15.90;99.90;;;;;;6185412;23;20449;-75
2021/10/08 11:39:13;;;;;;;1999.90;999.90;;;15.90;99.90;;;;;;6185298;23;20420;-76
2021/10/08 11:41:43;;;;;;;1999.90;999.90;;;16.00;99.90;;;;;;6197341;23;20386;-75
2021/10/08 11:44:21;;;;;;;1999.90;999.90;;;16.00;99.90;;;;;;6196461;23;20404;-75
2021/10/08 11:47:11;;;;;;;1999.90;999.90;;;16.10;99.90;;;;;;6185506;23;20557;-75
2021/10/08 11:52:32;;;;;;;1999.90;999.90;;;16.20;99.90;;;;;;6179646;23;20256;-76
2021/10/08 11:55:16;;;;;;;1999.90;999.90;;;16.30;99.90;;;;;;6185264;23;20398;-75
2021/10/08 11:57:53;;;;;;;1999.90;999.90;;;16.30;99.90;;;;;;6185200;23;20502;-76
2021/10/08 12:00:26;;;;;;;1999.90;999.90;;;16.40;99.90;;;;;;6185139;23;20401;-76
2021/10/08 12:03:05;;;;;;;1999.90;999.90;;;16.40;99.90;;;;;;6197323;23;20416;-76
2021/10/08 12:05:48;;;;;;;1999.90;999.90;;;16.50;99.90;;;;;;6185314;23;20411;-76
2021/10/08 12:08:18;;;;;;;1999.90;999.90;;;16.50;99.90;;;;;;6185154;23;20452;-76
2021/10/08 12:10:58;;;;;;;1999.90;999.90;;;16.50;99.90;;;;;;6185172;23;20413;-75
2021/10/08 12:13:39;;;;;;;1999.90;999.90;;;16.60;99.90;;;;;;6185150;23;20415;-76
2021/10/08 12:16:09;;;;;;;1999.90;999.90;;;16.60;99.90;;;;;;6185035;23;20400;-75
2021/10/08 12:18:45;;;;;;;1999.90;999.90;;;16.60;99.90;;;;;;6186789;23;20515;-76
2021/10/08 12:21:19;;;;;;;1999.90;999.90;;;16.60;99.90;;;;;;6186689;23;20384;-76
2021/10/08 12:23:58;;;;;;;1999.90;711.60;;;16.70;99.90;;;;;;6197068;23;20382;-76
2021/10/08 12:26:27;;;;;;;1999.90;999.90;;;16.70;99.90;;;;;;6186400;23;20396;-76
2021/10/08 12:28:57;;;;;;;1999.90;999.90;;;16.70;99.90;;;;;;6195225;23;20480;-75
2021/10/08 12:31:48;;;;;;;1999.90;597.23;;;16.80;99.90;;;;;;6196674;23;20196;-76
2021/10/08 12:34:35;;;;;;;1999.90;609.13;;;16.90;99.90;;;;;;6184894;23;20437;-75
2021/10/08 12:37:04;;;;;;;1999.90;688.87;;;16.90;99.90;;;;;;6185904;23;20385;-75
2021/10/08 12:40:00;;;;;;;1999.90;999.90;;;17.00;99.90;;;;;;6184949;23;20497;-75
2021/10/08 12:42:55;;;;;;;1999.90;999.90;;;17.10;99.90;;;;;;6185151;23;20410;-75
2021/10/08 12:46:01;;;;;;;1999.90;710.83;;;17.10;99.90;;;;;;6184829;23;20412;-75
2021/10/08 12:49:42;;;;;;;1999.90;999.90;;;17.20;99.90;;;;;;6186085;23;20431;-75
2021/10/08 12:52:11;;;;;;;1999.90;999.90;;;17.30;99.90;;;;;;6184983;23;20487;-75
2021/10/08 12:54:40;;;;;;;1999.90;999.90;;;17.40;99.90;;;;;;6185198;23;20506;-75
2021/10/08 12:57:14;;;;;;;1999.90;818.47;;;17.40;99.90;;;;;;6184693;23;20426;-75
2021/10/08 12:59:53;;;;;;;1999.90;657.73;;;17.50;99.90;;;;;;6196148;23;20788;-76
2021/10/08 13:02:23;;;;;;;1999.90;753.97;;;17.50;99.90;;;;;;6184338;23;20842;-75
2021/10/08 13:05:05;;;;;;;1999.90;711.67;;;17.60;99.90;;;;;;6186477;23;20378;-75
2021/10/08 13:07:34;;;;;;;1936.93;614.17;;;17.70;99.90;;;;;;6184692;23;20390;-75
2021/10/08 13:10:24;;;;;;;1999.90;700.53;;;17.70;99.90;;;;;;6184302;23;20422;-75
2021/10/08 13:12:57;;;;;;;1999.90;804.67;;;17.70;99.90;;;;;;6184614;23;20426;-77
2021/10/08 13:15:28;;;;;;;1999.90;783.20;;;17.70;99.90;;;;;;6186268;23;20458;-76
2021/10/08 13:17:58;;;;;;;1999.90;739.53;;;17.60;99.90;;;;;;6195963;23;20423;-75
2021/10/08 13:20:27;;;;;;;1999.90;869.90;;;17.60;99.90;;;;;;6184304;23;20411;-76
2021/10/08 13:22:56;;;;;;;1999.90;829.17;;;17.60;99.90;;;;;;6184229;23;20440;-76
2021/10/08 13:25:25;;;;;;;1999.90;766.23;;;17.60;99.90;;;;;;6194983;23;20478;-75
2021/10/08 13:27:53;;;;;;;1999.90;999.90;;;17.60;99.90;;;;;;6185754;23;20430;-76
2021/10/08 13:30:22;;;;;;;1999.90;811.90;;;17.70;99.90;;;;;;6184273;23;20408;-75
2021/10/08 13:32:50;;;;;;;1999.90;554.97;;;17.70;99.90;;;;;;6184286;23;20412;-76
2021/10/08 13:35:18;;;;;;;1999.90;536.17;;;17.70;99.90;;;;;;6195575;23;20399;-76
2021/10/08 13:37:48;;;;;;;1999.90;802.33;;;17.80;99.90;;;;;;6186136;23;20407;-75
2021/10/08 13:40:16;;;;;;;1999.90;655.40;;;17.90;99.90;;;;;;6184193;23;20415;-76
2021/10/08 13:42:44;;;;;;;1999.90;888.93;;;18.00;99.90;;;;;;6195652;23;20432;-76
2021/10/08 13:45:13;;;;;;;1999.90;800.80;;;18.00;99.90;;;;;;6184557;23;20894;-75
2021/10/08 13:47:43;;;;;;;1999.90;677.40;;;18.10;99.90;;;;;;6185571;23;20470;-75
2021/10/08 13:50:11;;;;;;;1999.90;687.57;;;18.10;99.90;;;;;;6184509;23;20448;-76
2021/10/08 13:52:40;;;;;;;1999.90;789.53;;;18.10;99.90;;;;;;6194293;23;20889;-75
2021/10/08 13:55:10;;;;;;;1999.90;791.20;;;18.20;99.90;;;;;;6183219;23;20417;-75
2021/10/08 13:57:39;;;;;;;1999.90;926.33;;;18.20;99.90;;;;;;6195658;23;20407;-75
2021/10/08 14:00:08;;;;;;;1999.90;721.50;;;18.20;99.90;;;;;;6195514;23;20442;-74
2021/10/08 14:02:46;;;;;;;1999.90;778.03;;;18.30;99.90;;;;;;6185251;23;20435;-74
2021/10/08 14:05:24;;;;;;;1999.90;697.17;;;18.30;99.90;;;;;;6186057;23;20392;-74
2021/10/08 14:10:29;;;;;;;1999.90;746.17;;;18.30;99.90;;;;;;6184142;23;20494;-74
2021/10/08 14:12:58;;;;;;;1999.90;718.37;;;18.30;99.90;;;;;;6183995;23;20383;-75
2021/10/08 14:15:27;;;;;;;1999.90;782.17;;;18.30;99.90;;;;;;6184050;23;20419;-75
2021/10/08 14:17:56;;;;;;;1999.90;727.17;;;18.30;99.90;;;;;;6183931;23;20786;-75
2021/10/08 14:20:25;;;;;;;1999.90;825.40;;;18.30;99.90;;;;;;6184061;23;20494;-75
2021/10/08 14:22:54;;;;;;;1999.90;793.60;;;18.30;99.90;;;;;;6183711;23;20439;-75
2021/10/08 14:25:22;;;;;;;1999.90;700.77;;;18.40;99.90;;;;;;6185972;23;20547;-75
2021/10/08 14:27:52;;;;;;;1999.90;660.30;;;18.40;99.90;;;;;;6195807;23;20427;-75
2021/10/08 14:30:20;;;;;;;1933.78;768.38;;;18.30;99.90;;;;;;6194978;23;20481;-75
2021/10/08 14:32:48;;;;;;;1999.90;601.63;;;18.40;99.90;;;;;;6184018;23;20695;-75
2021/10/08 14:35:16;;;;;;;1999.90;758.07;;;18.50;99.90;;;;;;6183807;23;20422;-75
2021/10/08 14:37:44;;;;;;;1999.90;704.47;;;18.50;99.90;;;;;;6183753;23;20419;-75
2021/10/08 14:40:13;;;;;;;1999.90;850.27;;;18.50;99.90;;;;;;6183927;23;20929;-75
2021/10/08 14:42:46;;;;;;;1999.90;598.20;;;18.50;99.90;;;;;;6183607;23;20770;-75
2021/10/08 14:45:17;;;;;;;1999.90;677.93;;;18.50;99.90;;;;;;6195796;23;20380;-75
2021/10/08 14:47:46;;;;;;;1999.90;779.27;;;18.50;99.90;;;;;;6197037;23;20499;-75
2021/10/08 14:50:15;;;;;;;1999.90;659.33;;;18.50;99.90;;;;;;6185765;23;20909;-75
2021/10/08 14:52:44;;;;;;;1999.90;719.53;;;18.50;99.90;;;;;;6197906;23;20714;-75
2021/10/08 14:57:58;;;;;;;1999.90;756.73;;;18.50;99.90;;;;;;6166581;23;20453;-75
2021/10/08 15:00:29;;;;;;;1999.90;838.17;;;18.50;99.90;;;;;;6185480;23;20427;-76
2021/10/08 15:03:08;;;;;;;1999.90;780.37;;;18.50;99.90;;;;;;6197256;23;20411;-75
2021/10/08 15:05:36;;;;;;;1999.90;816.73;;;18.50;99.90;;;;;;6185531;23;20422;-75
2021/10/08 15:08:05;;;;;;;1999.90;756.27;;;18.40;99.90;;;;;;6197341;23;20415;-75
2021/10/08 15:10:33;;;;;;;1999.90;724.90;;;18.40;99.90;;;;;;6185638;23;20495;-75
2021/10/08 15:13:01;;;;;;;1999.90;791.77;;;18.40;99.90;;;;;;6185626;23;20423;-74
2021/10/08 15:15:31;;;;;;;1999.90;999.90;;;18.40;99.90;;;;;;6184528;23;20411;-74
2021/10/08 15:17:59;;;;;;;1267.43;348.60;;;18.40;99.90;;;;;;6185453;23;20283;-75
2021/10/08 15:20:28;;;;;;;1999.90;673.87;;;18.40;99.90;;;;;;6185466;23;20419;-75
2021/10/08 15:22:56;;;;;;;1999.90;789.17;;;18.30;99.90;;;;;;6185408;23;20906;-74
2021/10/08 15:25:24;;;;;;;1999.90;753.07;;;18.30;99.90;;;;;;6185407;23;20746;-75
2021/10/08 15:27:54;;;;;;;1999.90;833.13;;;18.30;99.90;;;;;;6185330;23;20431;-75
2021/10/08 15:30:23;;;;;;;1999.90;674.97;;;18.30;99.90;;;;;;6196977;23;20739;-75
2021/10/08 15:32:53;;;;;;;1999.90;740.00;;;18.20;99.90;;;;;;6197007;23;20404;-75
2021/10/08 15:35:21;;;;;;;1999.90;712.63;;;18.20;99.90;;;;;;6196906;23;20396;-75
2021/10/08 15:37:50;;;;;;;1999.90;870.03;;;18.20;99.90;;;;;;6185319;23;20427;-75
2021/10/08 15:40:18;;;;;;;1999.90;655.73;;;18.10;99.90;;;;;;6197165;23;20404;-74
2021/10/08 15:42:46;;;;;;;1999.90;687.53;;;18.10;99.90;;;;;;6196822;23;20392;-75